Time;durP1;ratioP1;P1;durP2;ratioP2;P2;SDS_P1;SDS_P2;PMS_P1;PMS_P2;Temp;Humidity;BMP_temperature;BMP_pressure;BME280_temperature;BME280_humidity;BME280_pressure;Samples;Min_cycle;Max_cycle;Signal;HPM_P1;HPM_P2
2023/04/30 00:01:14;;;;;;;6.25;3.17;;;;;;;;;;5050504;28;20055;-75
2023/04/30 00:03:59;;;;;;;7.00;2.90;;;;;;;;;;5037961;28;20024;-75
2023/04/30 00:06:44;;;;;;;9.02;4.05;;;;;;;;;;5031335;28;20095;-75
2023/04/30 00:09:29;;;;;;;7.90;3.92;;;;;;;;;;5048293;28;20086;-74
2023/04/30 00:12:14;;;;;;;6.38;3.80;;;;;;;;;;5044655;28;20036;-74
2023/04/30 00:15:00;;;;;;;6.40;3.33;;;;;;;;;;5036914;28;20060;-74
2023/04/30 00:17:45;;;;;;;5.20;3.40;;;;;;;;;;5050212;28;20041;-68
2023/04/30 00:20:31;;;;;;;11.65;3.78;;;;;;;;;;5054536;28;20551;-66
2023/04/30 00:23:16;;;;;;;9.57;4.45;;;;;;;;;;5048483;28;20123;-66
2023/04/30 00:26:01;;;;;;;6.00;3.55;;;;;;;;;;5045845;28;20031;-65
2023/04/30 00:28:46;;;;;;;8.45;4.45;;;;;;;;;;5059073;28;20107;-68
2023/04/30 00:31:32;;;;;;;6.80;4.65;;;;;;;;;;5051278;28;20595;-67
2023/04/30 00:34:17;;;;;;;5.85;3.90;;;;;;;;;;5056339;28;20024;-66
2023/04/30 00:37:02;;;;;;;6.85;3.60;;;;;;;;;;5042182;28;20059;-77
2023/04/30 00:39:47;;;;;;;7.28;4.35;;;;;;;;;;5055788;28;20041;-63
2023/04/30 00:42:33;;;;;;;7.88;4.78;;;;;;;;;;5047695;28;20439;-61
2023/04/30 00:45:20;;;;;;;6.40;4.22;;;;;;;;;;5044740;28;20115;-60
2023/04/30 00:48:06;;;;;;;11.18;4.07;;;;;;;;;;5055375;28;20036;-62
2023/04/30 00:50:51;;;;;;;6.20;4.20;;;;;;;;;;5052079;28;20122;-62
2023/04/30 00:53:37;;;;;;;6.07;3.60;;;;;;;;;;5055912;28;20020;-60
2023/04/30 00:56:22;;;;;;;7.10;4.05;;;;;;;;;;5056217;28;20039;-76
2023/04/30 00:59:08;;;;;;;5.70;3.85;;;;;;;;;;5055010;28;20634;-76
2023/04/30 01:01:53;;;;;;;6.40;4.32;;;;;;;;;;5064190;28;20306;-75
2023/04/30 01:04:38;;;;;;;8.40;4.55;;;;;;;;;;5056382;28;20029;-74
2023/04/30 01:07:26;;;;;;;7.72;4.32;;;;;;;;;;5050333;28;20501;-74
2023/04/30 01:10:13;;;;;;;7.78;4.78;;;;;;;;;;5054837;28;20029;-76
2023/04/30 01:13:03;;;;;;;5.38;3.97;;;;;;;;;;5052831;28;20081;-75
2023/04/30 01:16:11;;;;;;;9.02;5.45;;;;;;;;;;5053717;28;20026;-73
2023/04/30 01:18:59;;;;;;;8.45;4.53;;;;;;;;;;5047413;28;20035;-78
2023/04/30 01:21:44;;;;;;;8.23;4.97;;;;;;;;;;5053631;28;20212;-74
2023/04/30 01:24:46;;;;;;;10.52;4.68;;;;;;;;;;5049059;28;20060;-74
2023/04/30 01:27:50;;;;;;;7.15;4.80;;;;;;;;;;5044503;28;20525;-74
2023/04/30 01:30:36;;;;;;;7.57;4.80;;;;;;;;;;5036545;28;20475;-74
2023/04/30 01:33:22;;;;;;;9.20;6.18;;;;;;;;;;5062288;28;20039;-69
2023/04/30 01:36:15;;;;;;;10.73;5.40;;;;;;;;;;5054871;28;20197;-61
2023/04/30 01:39:19;;;;;;;10.02;6.00;;;;;;;;;;5053006;28;20041;-61
2023/04/30 01:42:05;;;;;;;9.85;6.07;;;;;;;;;;5054318;28;20526;-62
2023/04/30 01:44:54;;;;;;;9.50;5.72;;;;;;;;;;5054972;28;20059;-62
2023/04/30 01:47:59;;;;;;;12.07;6.80;;;;;;;;;;5048749;28;20487;-61
2023/04/30 01:50:49;;;;;;;9.18;5.55;;;;;;;;;;5048921;28;20040;-71
2023/04/30 01:53:45;;;;;;;12.90;7.50;;;;;;;;;;5055123;28;20032;-67
2023/04/30 01:56:31;;;;;;;7.97;4.82;;;;;;;;;;5047667;28;20123;-66
2023/04/30 01:59:17;;;;;;;9.68;6.22;;;;;;;;;;5042645;28;20480;-67
2023/04/30 02:02:02;;;;;;;10.25;5.53;;;;;;;;;;5054478;28;20040;-70
2023/04/30 02:04:48;;;;;;;12.80;6.30;;;;;;;;;;5055808;28;20028;-68
2023/04/30 02:07:38;;;;;;;9.27;5.70;;;;;;;;;;5056173;28;20107;-66
2023/04/30 02:10:24;;;;;;;9.90;6.03;;;;;;;;;;5052824;28;20111;-70
2023/04/30 02:13:09;;;;;;;9.88;5.78;;;;;;;;;;5049592;28;20025;-73
2023/04/30 02:15:54;;;;;;;10.77;6.18;;;;;;;;;;5044637;28;20036;-82
2023/04/30 02:18:40;;;;;;;10.02;6.18;;;;;;;;;;5049992;28;20040;-77
2023/04/30 02:21:26;;;;;;;11.05;6.82;;;;;;;;;;5050649;28;20036;-80
2023/04/30 02:24:11;;;;;;;8.70;5.10;;;;;;;;;;5050313;28;20035;-78
2023/04/30 02:26:56;;;;;;;8.25;4.72;;;;;;;;;;5049087;28;20037;-71
2023/04/30 02:29:41;;;;;;;9.13;5.97;;;;;;;;;;5050425;28;20741;-68
2023/04/30 02:32:26;;;;;;;10.77;6.63;;;;;;;;;;5040507;28;20028;-67
2023/04/30 02:35:12;;;;;;;10.98;7.05;;;;;;;;;;5054168;28;20111;-67
2023/04/30 02:37:57;;;;;;;9.85;6.35;;;;;;;;;;5061642;28;20367;-71
2023/04/30 02:40:42;;;;;;;13.98;7.18;;;;;;;;;;5052713;28;20287;-71
2023/04/30 02:43:27;;;;;;;16.20;7.32;;;;;;;;;;5048354;28;20032;-68
2023/04/30 02:46:13;;;;;;;11.10;7.68;;;;;;;;;;5054378;28;20039;-74
2023/04/30 02:48:58;;;;;;;11.20;7.63;;;;;;;;;;5036858;28;20024;-70
2023/04/30 02:51:43;;;;;;;9.27;6.32;;;;;;;;;;5044817;28;20037;-70
2023/04/30 02:54:28;;;;;;;12.02;8.38;;;;;;;;;;5051990;28;20064;-70
2023/04/30 02:57:13;;;;;;;11.63;7.63;;;;;;;;;;5050590;28;20121;-70
2023/04/30 02:59:59;;;;;;;11.98;6.95;;;;;;;;;;5040957;28;20039;-71
2023/04/30 03:02:44;;;;;;;10.18;6.88;;;;;;;;;;5050549;28;20017;-71
2023/04/30 03:05:30;;;;;;;11.32;7.75;;;;;;;;;;5048962;28;20058;-69
2023/04/30 03:08:15;;;;;;;12.30;7.65;;;;;;;;;;5046711;28;20117;-77
2023/04/30 03:11:00;;;;;;;12.00;7.32;;;;;;;;;;5054482;28;20055;-77
2023/04/30 03:13:48;;;;;;;9.43;6.70;;;;;;;;;;5051298;28;20021;-76
2023/04/30 03:16:33;;;;;;;9.77;6.40;;;;;;;;;;5050322;28;20048;-76
2023/04/30 03:19:23;;;;;;;14.13;8.00;;;;;;;;;;5050260;28;20233;-77
2023/04/30 03:22:09;;;;;;;12.25;7.88;;;;;;;;;;5049423;28;20596;-79
2023/04/30 03:24:54;;;;;;;9.45;6.70;;;;;;;;;;5048933;28;20346;-80
2023/04/30 03:27:40;;;;;;;13.65;7.90;;;;;;;;;;5045747;28;20039;-80
2023/04/30 03:30:25;;;;;;;10.10;6.15;;;;;;;;;;5035494;28;20154;-80
2023/04/30 03:33:10;;;;;;;11.23;6.57;;;;;;;;;;5046059;28;20687;-79
2023/04/30 03:35:55;;;;;;;12.05;6.72;;;;;;;;;;5050009;28;20054;-79
2023/04/30 03:38:41;;;;;;;10.90;6.85;;;;;;;;;;5049318;28;20452;-79
2023/04/30 03:41:26;;;;;;;10.50;6.32;;;;;;;;;;5045056;28;20390;-79
2023/04/30 03:44:14;;;;;;;10.18;6.47;;;;;;;;;;5051128;28;20060;-78
2023/04/30 03:46:59;;;;;;;7.75;5.45;;;;;;;;;;5050967;28;20094;-79
2023/04/30 03:49:44;;;;;;;9.52;6.18;;;;;;;;;;5047594;28;20452;-78
2023/04/30 03:52:30;;;;;;;9.43;5.97;;;;;;;;;;5050796;28;20047;-79
2023/04/30 03:55:15;;;;;;;15.55;6.78;;;;;;;;;;5050911;28;20040;-78
2023/04/30 03:58:01;;;;;;;13.35;6.97;;;;;;;;;;5047986;28;20074;-79
2023/04/30 04:00:47;;;;;;;8.63;5.57;;;;;;;;;;5049966;28;20111;-80
2023/04/30 04:03:33;;;;;;;8.80;5.70;;;;;;;;;;5052627;28;20036;-70
2023/04/30 04:06:18;;;;;;;11.45;6.03;;;;;;;;;;5055935;28;20101;-69
2023/04/30 04:09:03;;;;;;;10.05;6.75;;;;;;;;;;5054202;28;20651;-68
2023/04/30 04:11:49;;;;;;;10.45;6.05;;;;;;;;;;5054205;28;20048;-68
2023/04/30 04:14:34;;;;;;;9.07;5.10;;;;;;;;;;5058753;28;20040;-68
2023/04/30 04:17:19;;;;;;;9.55;6.15;;;;;;;;;;5053747;28;20036;-81
2023/04/30 04:20:05;;;;;;;11.00;5.97;;;;;;;;;;5052162;28;20052;-67
2023/04/30 04:22:50;;;;;;;10.60;5.97;;;;;;;;;;5054257;28;20021;-66
2023/04/30 04:25:35;;;;;;;10.13;6.13;;;;;;;;;;5049915;28;20518;-67
2023/04/30 04:28:21;;;;;;;11.85;6.28;;;;;;;;;;5050606;28;20529;-68
2023/04/30 04:31:06;;;;;;;10.57;7.63;;;;;;;;;;5052839;28;20139;-67
2023/04/30 04:33:57;;;;;;;9.95;5.63;;;;;;;;;;5049314;28;20024;-69
2023/04/30 04:36:42;;;;;;;10.48;6.25;;;;;;;;;;5053043;28;20453;-70
2023/04/30 04:39:27;;;;;;;8.63;5.38;;;;;;;;;;5052476;28;20068;-72
2023/04/30 04:42:13;;;;;;;8.82;5.25;;;;;;;;;;5052063;28;20053;-71
2023/04/30 04:44:58;;;;;;;9.98;6.28;;;;;;;;;;5057538;28;20065;-73
2023/04/30 04:47:44;;;;;;;8.02;5.10;;;;;;;;;;5053040;28;20028;-72
2023/04/30 04:50:29;;;;;;;9.88;5.85;;;;;;;;;;5051293;28;20032;-74
2023/04/30 04:53:14;;;;;;;9.85;5.57;;;;;;;;;;5051353;28;20471;-73
2023/04/30 04:55:59;;;;;;;8.07;5.85;;;;;;;;;;5054975;28;20387;-78
2023/04/30 04:58:45;;;;;;;10.23;6.00;;;;;;;;;;5051409;28;20032;-70
2023/04/30 05:01:30;;;;;;;8.65;5.03;;;;;;;;;;5031405;28;20037;-70
2023/04/30 05:04:15;;;;;;;10.93;5.55;;;;;;;;;;5040647;28;20056;-70
2023/04/30 05:07:01;;;;;;;12.95;6.72;;;;;;;;;;5052613;28;20119;-70
2023/04/30 05:09:46;;;;;;;9.73;5.55;;;;;;;;;;5045808;28;20028;-68
2023/04/30 05:12:31;;;;;;;8.80;5.88;;;;;;;;;;5027514;28;20044;-69
2023/04/30 05:15:16;;;;;;;10.77;6.90;;;;;;;;;;5051059;28;20452;-67
2023/04/30 05:18:02;;;;;;;11.95;5.32;;;;;;;;;;5056919;28;20315;-65
2023/04/30 05:20:47;;;;;;;8.75;5.57;;;;;;;;;;5047391;28;20116;-69
2023/04/30 05:23:33;;;;;;;9.90;5.80;;;;;;;;;;5048240;28;20467;-67
2023/04/30 05:26:18;;;;;;;7.78;5.22;;;;;;;;;;5044464;28;20067;-67
2023/04/30 05:29:03;;;;;;;7.78;5.50;;;;;;;;;;5047435;28;20029;-67
2023/04/30 05:31:48;;;;;;;12.98;5.97;;;;;;;;;;5052913;28;20070;-66
2023/04/30 05:34:34;;;;;;;10.98;5.70;;;;;;;;;;5052724;28;20027;-76
2023/04/30 05:37:21;;;;;;;10.90;7.05;;;;;;;;;;5052840;28;20107;-76
2023/04/30 05:40:07;;;;;;;9.77;5.97;;;;;;;;;;5053636;28;20040;-84
2023/04/30 05:42:52;;;;;;;8.90;6.20;;;;;;;;;;5051922;28;20044;-83
2023/04/30 05:45:37;;;;;;;13.27;7.60;;;;;;;;;;5046804;28;20035;-84
2023/04/30 05:48:22;;;;;;;11.88;7.40;;;;;;;;;;5033288;28;20024;-85
2023/04/30 05:51:09;;;;;;;13.55;7.75;;;;;;;;;;5055972;28;20089;-68
2023/04/30 05:53:56;;;;;;;12.05;8.85;;;;;;;;;;5051761;28;20036;-70
2023/04/30 05:56:41;;;;;;;11.88;8.43;;;;;;;;;;5051771;28;20523;-68
2023/04/30 05:59:27;;;;;;;11.40;7.68;;;;;;;;;;5033371;28;20511;-69
2023/04/30 06:02:12;;;;;;;11.30;7.32;;;;;;;;;;5050665;28;20032;-67
2023/04/30 06:04:57;;;;;;;9.98;7.13;;;;;;;;;;5052619;28;20066;-67
2023/04/30 06:07:42;;;;;;;12.07;7.32;;;;;;;;;;5052093;28;20032;-70
2023/04/30 06:10:28;;;;;;;13.15;7.68;;;;;;;;;;5045107;28;20387;-78
2023/04/30 06:13:13;;;;;;;11.43;7.35;;;;;;;;;;5037840;28;20633;-78
2023/04/30 06:15:59;;;;;;;12.00;7.10;;;;;;;;;;5049999;28;20039;-79
2023/04/30 06:18:44;;;;;;;11.93;8.10;;;;;;;;;;5044825;28;20062;-78
2023/04/30 06:21:29;;;;;;;10.07;7.43;;;;;;;;;;5051486;28;20028;-80
2023/04/30 06:24:14;;;;;;;10.75;7.80;;;;;;;;;;5051496;28;20495;-79
2023/04/30 06:27:00;;;;;;;12.05;7.38;;;;;;;;;;5049706;28;20028;-77
2023/04/30 06:29:45;;;;;;;9.75;7.15;;;;;;;;;;5051839;28;20111;-67
2023/04/30 06:32:30;;;;;;;11.82;7.82;;;;;;;;;;5051669;28;20096;-67
2023/04/30 06:35:16;;;;;;;10.32;6.82;;;;;;;;;;5048004;28;20028;-68
2023/04/30 06:38:01;;;;;;;11.73;7.32;;;;;;;;;;5049348;28;20090;-71
2023/04/30 06:40:46;;;;;;;13.10;7.70;;;;;;;;;;5064977;28;20044;-69
2023/04/30 06:43:31;;;;;;;10.98;7.05;;;;;;;;;;5031994;28;20032;-68
2023/04/30 06:46:17;;;;;;;11.73;7.28;;;;;;;;;;5048747;28;20086;-80
2023/04/30 06:49:02;;;;;;;10.38;7.07;;;;;;;;;;5048020;28;20551;-66
2023/04/30 06:51:47;;;;;;;9.85;6.65;;;;;;;;;;5050852;28;20045;-68
2023/04/30 06:54:33;;;;;;;9.40;6.72;;;;;;;;;;5058686;28;20495;-67
2023/04/30 06:57:18;;;;;;;19.55;6.85;;;;;;;;;;5050658;28;20100;-67
2023/04/30 07:00:04;;;;;;;8.45;6.10;;;;;;;;;;5049733;28;20063;-68
2023/04/30 07:02:50;;;;;;;9.18;5.82;;;;;;;;;;5050766;28;20021;-76
2023/04/30 07:05:36;;;;;;;8.63;6.38;;;;;;;;;;5051710;28;20032;-79
2023/04/30 07:08:21;;;;;;;8.85;6.05;;;;;;;;;;5041959;28;20032;-77
2023/04/30 07:11:06;;;;;;;8.60;6.30;;;;;;;;;;5050843;28;20032;-79
2023/04/30 07:13:52;;;;;;;10.43;6.13;;;;;;;;;;5049981;28;20032;-79
2023/04/30 07:16:37;;;;;;;9.25;6.15;;;;;;;;;;5048100;28;20028;-76
2023/04/30 07:19:25;;;;;;;11.02;6.20;;;;;;;;;;5046280;28;20040;-75
2023/04/30 07:22:11;;;;;;;7.40;5.32;;;;;;;;;;5049853;28;20021;-66
2023/04/30 07:24:56;;;;;;;8.73;5.88;;;;;;;;;;5043888;28;20017;-70
2023/04/30 07:27:42;;;;;;;13.98;7.22;;;;;;;;;;5051960;28;20036;-67
2023/04/30 07:30:27;;;;;;;11.23;6.38;;;;;;;;;;5047977;28;20577;-67
2023/04/30 07:33:12;;;;;;;8.05;5.70;;;;;;;;;;5050039;28;20533;-68
2023/04/30 07:35:57;;;;;;;9.20;5.50;;;;;;;;;;5050974;28;20032;-68
2023/04/30 07:38:43;;;;;;;7.97;5.95;;;;;;;;;;5051072;28;20558;-67
2023/04/30 07:41:28;;;;;;;9.35;5.95;;;;;;;;;;5053339;28;20056;-65
2023/04/30 07:44:13;;;;;;;10.30;6.32;;;;;;;;;;5053967;28;20135;-75
2023/04/30 07:46:59;;;;;;;9.63;6.25;;;;;;;;;;5041314;28;20177;-76
2023/04/30 07:49:45;;;;;;;9.15;5.78;;;;;;;;;;5057201;28;20379;-74
2023/04/30 07:52:30;;;;;;;7.80;5.88;;;;;;;;;;5052098;28;20031;-76
2023/04/30 07:55:16;;;;;;;9.63;5.95;;;;;;;;;;5044647;28;20020;-76
2023/04/30 07:58:02;;;;;;;7.15;5.03;;;;;;;;;;5063495;28;20067;-67
2023/04/30 08:00:47;;;;;;;9.23;6.25;;;;;;;;;;5054888;28;20403;-67
2023/04/30 08:03:33;;;;;;;8.18;5.35;;;;;;;;;;5052212;28;20045;-65
2023/04/30 08:06:18;;;;;;;11.18;5.57;;;;;;;;;;5057210;28;20063;-66
2023/04/30 08:09:03;;;;;;;6.43;4.88;;;;;;;;;;5043824;28;20111;-67
2023/04/30 08:11:48;;;;;;;7.20;4.90;;;;;;;;;;5036958;28;20025;-69
2023/04/30 08:14:34;;;;;;;6.88;5.22;;;;;;;;;;5045228;28;20043;-66
2023/04/30 08:17:19;;;;;;;8.18;5.75;;;;;;;;;;5041734;28;20036;-65
2023/04/30 08:20:05;;;;;;;6.68;4.97;;;;;;;;;;5037190;28;20074;-66
2023/04/30 08:22:50;;;;;;;7.30;4.57;;;;;;;;;;5052666;28;20035;-68
2023/04/30 08:25:36;;;;;;;6.95;4.60;;;;;;;;;;5051577;28;20028;-66
2023/04/30 08:28:21;;;;;;;6.38;4.60;;;;;;;;;;5055410;28;20023;-66
2023/04/30 08:31:07;;;;;;;6.38;4.63;;;;;;;;;;5055197;28;20032;-69
2023/04/30 08:33:52;;;;;;;6.35;4.15;;;;;;;;;;5052818;28;20040;-65
2023/04/30 08:36:37;;;;;;;6.97;4.13;;;;;;;;;;5054411;28;20127;-67
2023/04/30 08:39:23;;;;;;;6.68;4.13;;;;;;;;;;5052187;28;20113;-82
2023/04/30 08:42:12;;;;;;;7.55;4.15;;;;;;;;;;5042808;28;20060;-80
2023/04/30 08:44:59;;;;;;;6.47;4.40;;;;;;;;;;5035199;28;20029;-80
2023/04/30 08:47:45;;;;;;;6.00;3.50;;;;;;;;;;5040451;28;20039;-80
2023/04/30 08:50:30;;;;;;;6.78;4.20;;;;;;;;;;5033267;28;20028;-79
2023/04/30 08:53:16;;;;;;;5.97;3.55;;;;;;;;;;5038422;28;20108;-81
2023/04/30 08:56:02;;;;;;;4.18;2.72;;;;;;;;;;5036748;28;20045;-80
2023/04/30 08:58:47;;;;;;;4.05;2.85;;;;;;;;;;5036206;28;20033;-79
2023/04/30 09:01:33;;;;;;;6.20;3.47;;;;;;;;;;5043086;28;20063;-78
2023/04/30 09:04:18;;;;;;;5.25;3.08;;;;;;;;;;5027709;28;20449;-81
2023/04/30 09:07:05;;;;;;;5.15;3.45;;;;;;;;;;5025337;28;20040;-79
2023/04/30 09:09:53;;;;;;;6.78;3.30;;;;;;;;;;5032767;28;20119;-76
2023/04/30 09:12:40;;;;;;;4.70;3.00;;;;;;;;;;5036291;28;20091;-73
2023/04/30 09:15:25;;;;;;;4.20;3.20;;;;;;;;;;5029521;28;20024;-77
2023/04/30 09:18:13;;;;;;;5.20;2.95;;;;;;;;;;5032731;28;20111;-82
2023/04/30 09:21:02;;;;;;;3.80;3.05;;;;;;;;;;5016072;28;20634;-80
2023/04/30 09:24:00;;;;;;;4.70;3.40;;;;;;;;;;5035861;28;20049;-75
2023/04/30 09:26:46;;;;;;;6.38;4.07;;;;;;;;;;5032321;28;20059;-73
2023/04/30 09:29:35;;;;;;;3.90;3.30;;;;;;;;;;5032020;28;20025;-69
2023/04/30 09:32:21;;;;;;;5.15;3.10;;;;;;;;;;5034373;28;20025;-76
2023/04/30 09:35:06;;;;;;;5.55;3.33;;;;;;;;;;5014966;28;20060;-71
2023/04/30 09:37:51;;;;;;;6.82;3.90;;;;;;;;;;5031550;28;20068;-71
2023/04/30 09:40:39;;;;;;;5.93;3.40;;;;;;;;;;5025528;28;20063;-72
2023/04/30 09:43:24;;;;;;;5.15;3.35;;;;;;;;;;5038685;28;20041;-72
2023/04/30 09:46:09;;;;;;;4.47;3.10;;;;;;;;;;5033351;28;20021;-73
2023/04/30 09:48:58;;;;;;;4.18;2.95;;;;;;;;;;5057977;28;20029;-78
2023/04/30 09:51:56;;;;;;;3.58;2.78;;;;;;;;;;5044599;28;20025;-76
2023/04/30 09:54:43;;;;;;;3.53;2.88;;;;;;;;;;5045051;28;20041;-75
2023/04/30 09:57:29;;;;;;;5.10;2.83;;;;;;;;;;5035590;28;20055;-74
2023/04/30 10:00:15;;;;;;;4.57;3.20;;;;;;;;;;5032081;28;20064;-76
2023/04/30 10:03:07;;;;;;;4.82;2.72;;;;;;;;;;5035147;28;20053;-76
2023/04/30 10:05:53;;;;;;;5.70;2.83;;;;;;;;;;5039441;28;20319;-77
2023/04/30 10:08:40;;;;;;;4.57;2.80;;;;;;;;;;5037985;28;20029;-77
2023/04/30 10:11:27;;;;;;;5.82;3.10;;;;;;;;;;5040556;28;20035;-73
2023/04/30 10:14:14;;;;;;;4.60;3.05;;;;;;;;;;5021749;28;20060;-72
2023/04/30 10:17:06;;;;;;;4.18;2.65;;;;;;;;;;5037242;28;20033;-71
2023/04/30 10:19:53;;;;;;;3.20;2.20;;;;;;;;;;5036120;28;20091;-71
2023/04/30 10:22:40;;;;;;;6.07;2.30;;;;;;;;;;5027969;28;20020;-71
2023/04/30 10:25:27;;;;;;;4.40;2.53;;;;;;;;;;5044232;28;20032;-69
2023/04/30 10:28:12;;;;;;;5.85;2.53;;;;;;;;;;5042497;28;20033;-71
2023/04/30 10:30:57;;;;;;;4.03;2.47;;;;;;;;;;5028410;28;20036;-70
2023/04/30 10:33:48;;;;;;;4.90;3.35;;;;;;;;;;5042081;28;20033;-71
2023/04/30 10:36:47;;;;;;;4.90;2.63;;;;;;;;;;5038789;28;20084;-69
2023/04/30 10:39:33;;;;;;;4.10;2.67;;;;;;;;;;5038783;28;20117;-71
2023/04/30 10:42:19;;;;;;;3.38;2.78;;;;;;;;;;5043195;28;20055;-72
2023/04/30 10:45:08;;;;;;;5.40;3.05;;;;;;;;;;5045527;28;20020;-80
2023/04/30 10:47:55;;;;;;;4.28;2.58;;;;;;;;;;5048886;28;20024;-68
2023/04/30 10:50:41;;;;;;;4.38;2.90;;;;;;;;;;5046767;28;20036;-70
2023/04/30 10:53:29;;;;;;;4.22;2.78;;;;;;;;;;5051062;28;20372;-71
2023/04/30 10:56:27;;;;;;;6.95;3.53;;;;;;;;;;5046626;28;20036;-72
2023/04/30 10:59:13;;;;;;;5.40;3.10;;;;;;;;;;5038448;28;20059;-69
2023/04/30 11:02:00;;;;;;;5.85;3.08;;;;;;;;;;5045252;28;20025;-72
2023/04/30 11:05:05;;;;;;;5.10;2.97;;;;;;;;;;5049404;28;20067;-72
2023/04/30 11:07:54;;;;;;;4.70;3.13;;;;;;;;;;5045292;28;20024;-75
2023/04/30 11:10:55;;;;;;;4.40;3.05;;;;;;;;;;5053004;28;20114;-77
2023/04/30 11:13:43;;;;;;;5.10;3.28;;;;;;;;;;5047861;28;20497;-74
2023/04/30 11:16:29;;;;;;;4.20;3.38;;;;;;;;;;5055585;28;20029;-76
2023/04/30 11:19:14;;;;;;;4.70;2.97;;;;;;;;;;5050211;28;20067;-76
2023/04/30 11:22:03;;;;;;;4.60;2.97;;;;;;;;;;5041867;28;20025;-69
2023/04/30 11:24:48;;;;;;;5.30;3.50;;;;;;;;;;5045519;28;20187;-69
2023/04/30 11:27:35;;;;;;;4.90;2.80;;;;;;;;;;5050916;28;20090;-68
2023/04/30 11:30:20;;;;;;;4.68;2.80;;;;;;;;;;5051424;28;20036;-72
2023/04/30 11:33:06;;;;;;;5.95;3.13;;;;;;;;;;5067274;28;20078;-70
2023/04/30 11:35:52;;;;;;;5.07;2.83;;;;;;;;;;5050223;28;20052;-71
2023/04/30 11:38:38;;;;;;;4.80;3.10;;;;;;;;;;5045266;28;20029;-72
2023/04/30 11:41:26;;;;;;;9.63;3.15;;;;;;;;;;5057823;28;20111;-71
2023/04/30 11:44:22;;;;;;;4.72;3.53;;;;;;;;;;5046182;28;20024;-75
2023/04/30 11:47:07;;;;;;;5.53;3.42;;;;;;;;;;5050084;28;20040;-72
2023/04/30 11:49:55;;;;;;;6.07;3.60;;;;;;;;;;5049283;28;20024;-74
2023/04/30 11:52:42;;;;;;;5.72;3.00;;;;;;;;;;5049065;28;20056;-72
2023/04/30 11:55:27;;;;;;;4.47;3.25;;;;;;;;;;5043669;28;20107;-72
2023/04/30 11:58:12;;;;;;;4.40;2.83;;;;;;;;;;5046124;28;21009;-66
2023/04/30 12:00:58;;;;;;;4.70;3.28;;;;;;;;;;5034828;28;20032;-71
2023/04/30 12:03:44;;;;;;;6.07;3.10;;;;;;;;;;5048529;28;20060;-70
2023/04/30 12:06:30;;;;;;;6.95;3.08;;;;;;;;;;5047858;28;20068;-72
2023/04/30 12:09:15;;;;;;;4.47;2.75;;;;;;;;;;5046857;28;20426;-73
2023/04/30 12:12:01;;;;;;;5.15;2.90;;;;;;;;;;5047799;28;20032;-74
2023/04/30 12:14:47;;;;;;;3.20;2.33;;;;;;;;;;5048416;28;20040;-71
2023/04/30 12:17:33;;;;;;;4.35;2.65;;;;;;;;;;5047603;28;20028;-72
2023/04/30 12:20:20;;;;;;;4.93;2.95;;;;;;;;;;5047207;28;20131;-80
2023/04/30 12:23:06;;;;;;;3.35;2.70;;;;;;;;;;5042226;28;20483;-79
2023/04/30 12:25:58;;;;;;;3.70;2.70;;;;;;;;;;5051204;28;20031;-78
2023/04/30 12:28:51;;;;;;;3.35;2.35;;;;;;;;;;5042983;28;20024;-78
2023/04/30 12:31:37;;;;;;;2.40;2.20;;;;;;;;;;5052404;28;20045;-79
2023/04/30 12:34:25;;;;;;;2.65;2.10;;;;;;;;;;5053453;28;20028;-74
2023/04/30 12:37:13;;;;;;;5.30;2.67;;;;;;;;;;5053578;28;20116;-79
2023/04/30 12:39:59;;;;;;;4.90;2.60;;;;;;;;;;5051363;28;20421;-80
2023/04/30 12:42:45;;;;;;;3.65;2.55;;;;;;;;;;5026545;28;20188;-78
2023/04/30 12:45:54;;;;;;;5.38;3.17;;;;;;;;;;5037916;28;20057;-78
2023/04/30 12:48:43;;;;;;;4.22;2.75;;;;;;;;;;5030016;28;20033;-79
2023/04/30 12:51:29;;;;;;;;;;;;;;;;;;5030136;28;20040;-78
2023/04/30 12:54:36;;;;;;;6.57;2.70;;;;;;;;;;5030950;28;20406;-76
2023/04/30 13:01:01;;;;;;;5.68;2.95;;;;;;;;;;5042666;28;20041;-72
2023/04/30 13:03:47;;;;;;;5.65;3.05;;;;;;;;;;5030295;28;20122;-72
2023/04/30 13:06:32;;;;;;;3.80;2.97;;;;;;;;;;5030544;28;20033;-72
2023/04/30 13:09:17;;;;;;;4.65;2.53;;;;;;;;;;5031458;28;20112;-73
2023/04/30 13:12:03;;;;;;;6.80;3.22;;;;;;;;;;5030994;28;20045;-73
2023/04/30 13:14:48;;;;;;;5.38;3.20;;;;;;;;;;5018146;28;20033;-70
2023/04/30 13:17:33;;;;;;;6.10;3.53;;;;;;;;;;5037721;28;20391;-70
2023/04/30 13:20:19;;;;;;;4.90;3.10;;;;;;;;;;5027223;28;20319;-71
2023/04/30 13:23:05;;;;;;;5.68;3.25;;;;;;;;;;5032222;28;20033;-73
2023/04/30 13:25:50;;;;;;;4.20;2.92;;;;;;;;;;5020232;28;20029;-74
2023/04/30 13:28:36;;;;;;;4.82;2.50;;;;;;;;;;5034906;28;20412;-75
2023/04/30 13:31:21;;;;;;;5.00;2.85;;;;;;;;;;5031083;28;20041;-77
2023/04/30 13:34:07;;;;;;;6.75;3.33;;;;;;;;;;5022658;28;20032;-70
2023/04/30 13:36:53;;;;;;;3.75;2.90;;;;;;;;;;5028816;28;20507;-69
2023/04/30 13:39:38;;;;;;;6.85;3.30;;;;;;;;;;5026855;28;20037;-70
2023/04/30 13:42:25;;;;;;;6.60;2.78;;;;;;;;;;5031119;28;20454;-73
2023/04/30 13:45:11;;;;;;;4.35;2.90;;;;;;;;;;5028848;28;20020;-70
2023/04/30 13:47:56;;;;;;;3.78;2.60;;;;;;;;;;5035930;28;20036;-71
2023/04/30 13:50:41;;;;;;;4.40;2.90;;;;;;;;;;5037453;28;20032;-75
2023/04/30 13:53:26;;;;;;;5.15;2.67;;;;;;;;;;5030661;28;20033;-74
2023/04/30 13:56:14;;;;;;;3.35;2.72;;;;;;;;;;5030780;28;20028;-75
2023/04/30 13:58:59;;;;;;;9.25;2.58;;;;;;;;;;5030293;28;20036;-74
2023/04/30 14:01:44;;;;;;;3.22;2.42;;;;;;;;;;5033693;28;20037;-75
2023/04/30 14:04:30;;;;;;;5.57;2.90;;;;;;;;;;5033359;28;20056;-75
2023/04/30 14:07:15;;;;;;;5.28;2.85;;;;;;;;;;5034452;28;20365;-76
2023/04/30 14:10:00;;;;;;;3.10;2.50;;;;;;;;;;5018967;28;20091;-73
2023/04/30 14:12:47;;;;;;;4.72;3.00;;;;;;;;;;5031502;28;20106;-71
2023/04/30 14:15:32;;;;;;;4.47;2.65;;;;;;;;;;5031667;28;20531;-75
2023/04/30 14:18:21;;;;;;;5.20;2.70;;;;;;;;;;5034308;28;20032;-72
2023/04/30 14:21:06;;;;;;;5.30;2.80;;;;;;;;;;5040526;28;20096;-71
2023/04/30 14:23:52;;;;;;;5.38;2.85;;;;;;;;;;5031130;28;20028;-76
2023/04/30 14:26:37;;;;;;;5.15;3.28;;;;;;;;;;5030804;28;20462;-77
2023/04/30 14:29:23;;;;;;;4.38;3.05;;;;;;;;;;5031281;28;20132;-76
2023/04/30 14:32:08;;;;;;;5.40;2.70;;;;;;;;;;5033440;28;20039;-76
2023/04/30 14:34:53;;;;;;;4.00;2.83;;;;;;;;;;5032652;28;20017;-75
2023/04/30 14:37:39;;;;;;;4.00;2.28;;;;;;;;;;5033306;28;20029;-77
2023/04/30 14:40:24;;;;;;;5.50;2.90;;;;;;;;;;5033044;28;20095;-75
2023/04/30 14:43:09;;;;;;;4.65;2.75;;;;;;;;;;5030973;28;20032;-76
2023/04/30 14:45:55;;;;;;;5.70;2.97;;;;;;;;;;5031550;28;20029;-75
2023/04/30 14:48:40;;;;;;;5.90;2.67;;;;;;;;;;5033044;28;20025;-75
2023/04/30 14:51:27;;;;;;;5.88;3.58;;;;;;;;;;5019456;28;20025;-75
2023/04/30 14:54:12;;;;;;;5.57;3.00;;;;;;;;;;5038939;28;20078;-76
2023/04/30 14:56:57;;;;;;;8.52;3.28;;;;;;;;;;5010266;28;20487;-76
2023/04/30 14:59:44;;;;;;;3.22;2.75;;;;;;;;;;5029897;28;20048;-74
2023/04/30 15:02:29;;;;;;;4.28;2.75;;;;;;;;;;5015121;28;20506;-71
2023/04/30 15:05:15;;;;;;;4.88;2.85;;;;;;;;;;5021350;28;20503;-74
2023/04/30 15:08:00;;;;;;;4.93;2.97;;;;;;;;;;5034072;28;20112;-74
2023/04/30 15:10:45;;;;;;;3.58;2.83;;;;;;;;;;5035819;28;20112;-73
2023/04/30 15:13:31;;;;;;;3.60;2.75;;;;;;;;;;5024916;28;20450;-77
2023/04/30 15:16:17;;;;;;;4.22;2.47;;;;;;;;;;5020947;28;20057;-76
2023/04/30 15:19:02;;;;;;;4.93;2.67;;;;;;;;;;5018402;28;20506;-73
2023/04/30 15:21:48;;;;;;;6.38;2.72;;;;;;;;;;5030053;28;20100;-75
2023/04/30 15:24:33;;;;;;;3.45;2.42;;;;;;;;;;5037694;28;20316;-69
2023/04/30 15:27:18;;;;;;;2.83;2.20;;;;;;;;;;5031818;28;20040;-71
2023/04/30 15:30:04;;;;;;;5.22;2.88;;;;;;;;;;5032368;28;20024;-73
2023/04/30 15:32:49;;;;;;;5.70;3.00;;;;;;;;;;5027680;28;20029;-71
2023/04/30 15:35:34;;;;;;;3.47;2.83;;;;;;;;;;5024557;28;20036;-73
2023/04/30 15:38:20;;;;;;;4.43;3.03;;;;;;;;;;5030543;28;20573;-68
2023/04/30 15:41:05;;;;;;;4.30;3.03;;;;;;;;;;5025454;28;20506;-70
2023/04/30 15:43:51;;;;;;;4.32;2.88;;;;;;;;;;5052226;28;20036;-69
2023/04/30 15:46:36;;;;;;;4.57;2.65;;;;;;;;;;5052655;28;20041;-68
2023/04/30 15:49:22;;;;;;;6.05;3.20;;;;;;;;;;5048162;28;20183;-72
2023/04/30 15:52:07;;;;;;;5.13;3.10;;;;;;;;;;5051001;28;20550;-69
2023/04/30 15:54:52;;;;;;;4.30;3.05;;;;;;;;;;5045277;28;20040;-70
2023/04/30 15:57:37;;;;;;;4.68;2.80;;;;;;;;;;5055822;28;20024;-71
2023/04/30 16:00:23;;;;;;;5.38;3.10;;;;;;;;;;5047183;28;20383;-68
2023/04/30 16:03:08;;;;;;;3.65;2.70;;;;;;;;;;5053242;28;20107;-68
2023/04/30 16:05:54;;;;;;;4.10;2.97;;;;;;;;;;5052154;28;20033;-71
2023/04/30 16:08:40;;;;;;;6.35;3.28;;;;;;;;;;5050517;28;20043;-71
2023/04/30 16:11:25;;;;;;;3.78;2.47;;;;;;;;;;5055640;28;20656;-72
2023/04/30 16:14:11;;;;;;;3.15;2.50;;;;;;;;;;5056095;28;20051;-76
2023/04/30 16:16:56;;;;;;;5.70;2.90;;;;;;;;;;5056766;28;20047;-63
2023/04/30 16:19:41;;;;;;;3.33;2.65;;;;;;;;;;5053159;28;20032;-73
2023/04/30 16:22:27;;;;;;;3.78;2.60;;;;;;;;;;5050144;28;20028;-75
2023/04/30 16:25:12;;;;;;;4.38;2.80;;;;;;;;;;5052107;28;20553;-77
2023/04/30 16:27:57;;;;;;;5.38;2.92;;;;;;;;;;5056877;28;20084;-77
2023/04/30 16:30:43;;;;;;;4.60;2.85;;;;;;;;;;5052492;28;20032;-77
2023/04/30 16:33:28;;;;;;;5.68;3.00;;;;;;;;;;5038547;28;20391;-71
2023/04/30 16:36:13;;;;;;;4.45;2.80;;;;;;;;;;5052032;28;20040;-78
2023/04/30 16:38:58;;;;;;;4.18;2.75;;;;;;;;;;5047016;28;20100;-79